Time,TemperatureF,DewpointF,PressureIn,WindDirection,WindDirectionDegrees,WindSpeedMPH,WindSpeedGustMPH,Humidity,HourlyPrecipIn,Conditions,Clouds,dailyrainin,SoftwareType,DateUTC
2013-07-08 00:01:00,79.0,72.0,29.97,SW,236,5.0,7.0,78,0.00,,,0.00,weatherlink.com 1.10,2013-07-08 05:01:00,
2013-07-08 00:16:00,78.9,71.0,29.97,South,174,4.0,8.0,77,0.00,,,0.00,weatherlink.com 1.10,2013-07-08 05:16:00,
2013-07-08 00:32:00,78.5,71.0,29.97,SW,215,4.0,6.0,77,0.00,,,0.00,weatherlink.com 1.10,2013-07-08 05:32:00,
2013-07-08 00:46:00,78.3,71.0,29.97,SSW,198,2.0,7.0,77,0.00,,,0.00,weatherlink.com 1.10,2013-07-08 05:46:00,
2013-07-08 01:01:00,78.1,70.0,29.97,South,172,4.0,6.0,77,0.00,,,0.00,weatherlink.com 1.10,2013-07-08 06:01:00,
2013-07-08 01:17:00,77.9,70.0,29.97,SW,218,5.0,7.0,76,0.00,,,0.00,weatherlink.com 1.10,2013-07-08 06:17:00,
2013-07-08 01:31:00,78.1,70.0,29.97,SW,226,9.0,9.0,75,0.00,,,0.00,weatherlink.com 1.10,2013-07-08 06:31:00,
2013-07-08 01:47:00,78.2,70.0,29.97,SW,221,5.0,8.0,75,0.00,,,0.00,weatherlink.com 1.10,2013-07-08 06:47:00,
2013-07-08 02:02:00,78.0,70.0,29.97,SW,229,5.0,8.0,75,0.00,,,0.00,weatherlink.com 1.10,2013-07-08 07:02:00,
2013-07-08 02:16:00,77.9,69.0,29.96,SSW,201,6.0,9.0,75,0.00,,,0.00,weatherlink.com 1.10,2013-07-08 07:16:00,
2013-07-08 02:32:00,77.9,69.0,29.96,SSW,207,4.0,8.0,75,0.00,,,0.00,weatherlink.com 1.10,2013-07-08 07:32:00,
2013-07-08 02:47:00,77.9,69.0,29.96,WSW,248,2.0,8.0,75,0.00,,,0.00,weatherlink.com 1.10,2013-07-08 07:47:00,
2013-07-08 03:01:00,78.0,70.0,29.96,West,262,2.0,5.0,75,0.00,,,0.00,weatherlink.com 1.10,2013-07-08 08:01:00,
2013-07-08 03:17:00,77.9,69.0,29.95,WSW,243,5.0,10.0,74,0.00,,,0.00,weatherlink.com 1.10,2013-07-08 08:17:00,
2013-07-08 03:32:00,77.7,69.0,29.95,WSW,257,6.0,11.0,75,0.00,,,0.00,weatherlink.com 1.10,2013-07-08 08:32:00,
2013-07-08 03:48:00,77.2,69.0,29.95,WSW,255,4.0,13.0,76,0.00,,,0.00,weatherlink.com 1.10,2013-07-08 08:48:00,
2013-07-08 04:02:00,77.1,69.0,29.95,SW,219,7.0,10.0,77,0.00,,,0.00,weatherlink.com 1.10,2013-07-08 09:02:00,
2013-07-08 04:18:00,76.8,69.0,29.95,SW,233,4.0,8.0,78,0.00,,,0.00,weatherlink.com 1.10,2013-07-08 09:18:00,
2013-07-08 04:32:00,76.4,69.0,29.95,SW,215,4.0,7.0,79,0.00,,,0.00,weatherlink.com 1.10,2013-07-08 09:32:00,
2013-07-08 04:48:00,76.1,70.0,29.95,SSW,212,4.0,7.0,80,0.00,,,0.00,weatherlink.com 1.10,2013-07-08 09:48:00,
2013-07-08 05:02:00,76.0,70.0,29.95,SSW,210,2.0,8.0,81,0.00,,,0.00,weatherlink.com 1.10,2013-07-08 10:02:00,
2013-07-08 05:18:00,75.7,70.0,29.96,SSW,210,1.0,5.0,82,0.00,,,0.00,weatherlink.com 1.10,2013-07-08 10:18:00,
2013-07-08 05:32:00,75.3,70.0,29.98,West,263,0.0,1.0,83,0.00,,,0.00,weatherlink.com 1.10,2013-07-08 10:32:00,
2013-07-08 05:48:00,74.9,70.0,29.99,West,263,0.0,1.0,84,0.00,,,0.00,weatherlink.com 1.10,2013-07-08 10:48:00,
2013-07-08 06:03:00,74.6,70.0,29.99,West,263,0.0,0.0,85,0.00,,,0.00,weatherlink.com 1.10,2013-07-08 11:03:00,
2013-07-08 06:19:00,74.7,70.0,29.99,West,263,1.0,2.0,84,0.00,,,0.00,weatherlink.com 1.10,2013-07-08 11:19:00,
2013-07-08 06:33:00,74.4,70.0,29.98,SW,221,3.0,3.0,85,0.00,,,0.00,weatherlink.com 1.10,2013-07-08 11:33:00,
2013-07-08 06:49:00,73.7,70.0,29.98,SW,229,3.0,3.0,89,0.00,,,0.00,weatherlink.com 1.10,2013-07-08 11:49:00,
2013-07-08 07:04:00,73.1,70.0,29.98,WSW,245,2.0,2.0,90,0.02,,,0.02,weatherlink.com 1.10,2013-07-08 12:04:00,
2013-07-08 07:18:00,72.9,70.0,29.98,WSW,238,5.0,5.0,90,0.04,,,0.04,weatherlink.com 1.10,2013-07-08 12:18:00,
2013-07-08 07:34:00,72.9,70.0,30.00,SW,221,3.0,7.0,91,0.06,,,0.06,weatherlink.com 1.10,2013-07-08 12:34:00,
2013-07-08 07:49:00,73.2,70.0,30.00,SW,222,4.0,8.0,90,0.07,,,0.07,weatherlink.com 1.10,2013-07-08 12:49:00,
2013-07-08 08:03:00,73.4,71.0,30.00,WSW,242,1.0,4.0,91,0.05,,,0.07,weatherlink.com 1.10,2013-07-08 13:03:00,
2013-07-08 08:19:00,73.6,71.0,30.01,WSW,252,2.0,3.0,90,0.03,,,0.07,weatherlink.com 1.10,2013-07-08 13:19:00,
2013-07-08 08:34:00,73.7,71.0,30.01,SW,219,1.0,1.0,90,0.01,,,0.07,weatherlink.com 1.10,2013-07-08 13:34:00,
2013-07-08 08:50:00,73.8,71.0,30.02,WSW,250,3.0,3.0,91,0.00,,,0.07,weatherlink.com 1.10,2013-07-08 13:50:00,
2013-07-08 09:05:00,73.3,71.0,30.02,WSW,253,3.0,5.0,91,0.02,,,0.09,weatherlink.com 1.10,2013-07-08 14:05:00,
2013-07-08 09:19:00,73.3,71.0,30.02,WSW,239,5.0,7.0,91,0.03,,,0.10,weatherlink.com 1.10,2013-07-08 14:19:00,
2013-07-08 09:34:00,73.3,71.0,30.02,WSW,246,5.0,8.0,91,0.03,,,0.10,weatherlink.com 1.10,2013-07-08 14:34:00,
2013-07-08 09:50:00,73.6,71.0,30.02,SW,233,3.0,5.0,91,0.03,,,0.10,weatherlink.com 1.10,2013-07-08 14:50:00,
2013-07-08 10:04:00,73.7,71.0,30.01,SW,231,3.0,4.0,92,0.01,,,0.10,weatherlink.com 1.10,2013-07-08 15:04:00,
2013-07-08 10:20:00,74.1,71.0,30.02,SW,219,3.0,7.0,91,0.00,,,0.10,weatherlink.com 1.10,2013-07-08 15:20:00,
2013-07-08 10:35:00,74.3,72.0,30.02,WSW,238,0.0,2.0,91,0.00,,,0.10,weatherlink.com 1.10,2013-07-08 15:35:00,
2013-07-08 10:49:00,75.1,73.0,30.01,SW,214,3.0,3.0,92,0.00,,,0.10,weatherlink.com 1.10,2013-07-08 15:49:00,
2013-07-08 11:05:00,76.3,72.0,30.02,SSW,198,3.0,8.0,87,0.00,,,0.10,weatherlink.com 1.10,2013-07-08 16:05:00,
2013-07-08 11:19:00,76.8,72.0,30.02,South,170,2.0,4.0,85,0.00,,,0.10,weatherlink.com 1.10,2013-07-08 16:19:00,
2013-07-08 11:35:00,76.6,72.0,30.02,WSW,245,2.0,4.0,86,0.00,,,0.10,weatherlink.com 1.10,2013-07-08 16:35:00,
2013-07-08 11:50:00,76.8,72.0,30.01,SSW,209,3.0,7.0,86,0.00,,,0.10,weatherlink.com 1.10,2013-07-08 16:50:00,
2013-07-08 12:05:00,76.2,73.0,30.01,SW,232,5.0,8.0,88,0.00,,,0.10,weatherlink.com 1.10,2013-07-08 17:05:00,
2013-07-08 12:35:00,75.8,72.0,30.00,SW,222,4.0,8.0,89,0.00,,,0.10,weatherlink.com 1.10,2013-07-08 17:35:00,
2013-07-08 12:50:00,76.0,73.0,29.99,WSW,243,3.0,10.0,90,0.00,,,0.10,weatherlink.com 1.10,2013-07-08 17:50:00,
2013-07-08 13:05:00,76.8,73.0,29.98,SSW,211,6.0,12.0,89,0.00,,,0.10,weatherlink.com 1.10,2013-07-08 18:05:00,
2013-07-08 13:50:00,80.1,75.0,29.97,SSW,198,8.0,12.0,84,0.00,,,0.10,weatherlink.com 1.10,2013-07-08 18:50:00,
2013-07-08 14:36:00,82.7,76.0,29.98,SW,217,5.0,10.0,79,0.00,,,0.10,weatherlink.com 1.10,2013-07-08 19:36:00,
2013-07-08 14:50:00,82.9,77.0,29.97,SSE,165,3.0,9.0,81,0.00,,,0.10,weatherlink.com 1.10,2013-07-08 19:50:00,
2013-07-08 15:06:00,83.7,77.0,29.97,South,170,4.0,9.0,81,0.00,,,0.10,weatherlink.com 1.10,2013-07-08 20:06:00,
2013-07-08 15:22:00,83.8,77.0,29.97,WSW,238,4.0,8.0,79,0.00,,,0.10,weatherlink.com 1.10,2013-07-08 20:22:00,
2013-07-08 15:36:00,83.2,76.0,29.97,WSW,254,3.0,7.0,80,0.00,,,0.10,weatherlink.com 1.10,2013-07-08 20:36:00,
2013-07-08 16:06:00,84.0,77.0,29.97,WSW,245,4.0,8.0,78,0.00,,,0.10,weatherlink.com 1.10,2013-07-08 21:06:00,
2013-07-08 17:06:00,87.1,78.0,29.95,SW,233,6.0,6.0,73,0.00,,,0.10,weatherlink.com 1.10,2013-07-08 22:06:00,
2013-07-08 17:22:00,86.7,78.0,29.95,SW,231,3.0,6.0,75,0.00,,,0.10,weatherlink.com 1.10,2013-07-08 22:22:00,
2013-07-08 17:37:00,86.5,78.0,29.95,South,189,3.0,4.0,75,0.00,,,0.10,weatherlink.com 1.10,2013-07-08 22:37:00,
2013-07-08 18:07:00,85.7,78.0,29.94,SSW,212,1.0,5.0,77,0.00,,,0.10,weatherlink.com 1.10,2013-07-08 23:07:00,
2013-07-08 19:08:00,84.3,78.0,29.95,SW,231,1.0,3.0,82,0.00,,,0.10,weatherlink.com 1.10,2013-07-09 00:08:00,
2013-07-08 19:23:00,83.9,78.0,29.95,SW,232,0.0,2.0,82,0.00,,,0.10,weatherlink.com 1.10,2013-07-09 00:23:00,
2013-07-08 19:37:00,83.3,78.0,29.95,WSW,245,0.0,2.0,83,0.00,,,0.10,weatherlink.com 1.10,2013-07-09 00:37:00,
2013-07-08 20:09:00,82.5,78.0,29.95,SW,221,0.0,1.0,86,0.00,,,0.10,weatherlink.com 1.10,2013-07-09 01:09:00,
2013-07-08 20:23:00,82.1,77.0,29.95,SW,220,1.0,1.0,85,0.00,,,0.10,weatherlink.com 1.10,2013-07-09 01:23:00,
2013-07-08 20:37:00,81.8,77.0,29.95,SW,221,0.0,1.0,85,0.00,,,0.10,weatherlink.com 1.10,2013-07-09 01:37:00,
2013-07-08 21:09:00,81.3,76.0,29.95,SSW,208,0.0,2.0,84,0.00,,,0.10,weatherlink.com 1.10,2013-07-09 02:09:00,
2013-07-08 21:23:00,80.9,76.0,29.95,SSW,211,2.0,2.0,85,0.00,,,0.10,weatherlink.com 1.10,2013-07-09 02:23:00,
2013-07-08 21:53:00,80.3,76.0,29.95,South,170,0.0,1.0,85,0.00,,,0.10,weatherlink.com 1.10,2013-07-09 02:53:00,
2013-07-08 22:23:00,79.9,75.0,29.96,South,170,1.0,2.0,85,0.00,,,0.10,weatherlink.com 1.10,2013-07-09 03:23:00,
2013-07-08 22:53:00,79.7,75.0,29.96,SSW,208,2.0,3.0,84,0.00,,,0.10,weatherlink.com 1.10,2013-07-09 03:53:00,
2013-07-08 23:08:00,79.8,74.0,29.96,SW,229,0.0,1.0,83,0.00,,,0.10,weatherlink.com 1.10,2013-07-09 04:08:00,
2013-07-08 23:23:00,79.9,74.0,29.96,SW,231,1.0,2.0,81,0.00,,,0.10,weatherlink.com 1.10,2013-07-09 04:23:00,
2013-07-08 23:38:00,79.9,74.0,29.96,SW,226,0.0,4.0,82,0.00,,,0.10,weatherlink.com 1.10,2013-07-09 04:38:00,
2013-07-08 23:53:00,79.2,74.0,29.96,SW,217,0.0,2.0,84,0.00,,,0.10,weatherlink.com 1.10,2013-07-09 04:53:00,